sensor_id;sensor_type;location;lat;lon;timestamp;pressure;altitude;pressure_sealevel;temperature;humidity
79544;BME280;68994;47.176;7.534;2023-05-10T00:00:25;95717.97;;;12.27;86.73
79544;BME280;68994;47.176;7.534;2023-05-10T00:02:51;95719.84;;;12.26;86.43
79544;BME280;68994;47.176;7.534;2023-05-10T00:05:18;95719.06;;;12.25;86.34
79544;BME280;68994;47.176;7.534;2023-05-10T00:07:46;95716.63;;;12.29;85.85
79544;BME280;68994;47.176;7.534;2023-05-10T00:10:13;95713.72;;;12.25;86.32
79544;BME280;68994;47.176;7.534;2023-05-10T00:12:39;95706.72;;;12.30;85.87
79544;BME280;68994;47.176;7.534;2023-05-10T00:15:07;95710.78;;;12.22;86.44
79544;BME280;68994;47.176;7.534;2023-05-10T00:17:34;95694.22;;;12.15;86.72
79544;BME280;68994;47.176;7.534;2023-05-10T00:20:01;95701.69;;;12.23;86.58
79544;BME280;68994;47.176;7.534;2023-05-10T00:22:30;95689.41;;;12.22;86.67
79544;BME280;68994;47.176;7.534;2023-05-10T00:24:58;95698.69;;;12.30;86.45
79544;BME280;68994;47.176;7.534;2023-05-10T00:27:25;95699.00;;;12.23;86.15
79544;BME280;68994;47.176;7.534;2023-05-10T00:29:51;95703.28;;;12.24;85.55
79544;BME280;68994;47.176;7.534;2023-05-10T00:32:18;95708.09;;;12.27;85.64
79544;BME280;68994;47.176;7.534;2023-05-10T00:34:44;95701.69;;;12.18;85.87
79544;BME280;68994;47.176;7.534;2023-05-10T00:37:11;95710.28;;;12.15;85.79
79544;BME280;68994;47.176;7.534;2023-05-10T00:39:37;95707.84;;;12.23;85.41
79544;BME280;68994;47.176;7.534;2023-05-10T00:42:05;95720.66;;;12.21;85.53
79544;BME280;68994;47.176;7.534;2023-05-10T00:44:32;95715.59;;;12.20;85.78
79544;BME280;68994;47.176;7.534;2023-05-10T00:46:59;95720.44;;;12.18;85.69
79544;BME280;68994;47.176;7.534;2023-05-10T00:49:26;95726.06;;;12.11;85.37
79544;BME280;68994;47.176;7.534;2023-05-10T00:51:52;95731.66;;;12.15;85.57
79544;BME280;68994;47.176;7.534;2023-05-10T00:54:19;95720.19;;;12.09;85.66
79544;BME280;68994;47.176;7.534;2023-05-10T00:56:46;95720.75;;;12.01;85.94
79544;BME280;68994;47.176;7.534;2023-05-10T00:59:16;95723.16;;;12.02;85.67
79544;BME280;68994;47.176;7.534;2023-05-10T01:01:43;95721.00;;;12.04;85.58
79544;BME280;68994;47.176;7.534;2023-05-10T01:04:10;95717.53;;;12.09;85.17
79544;BME280;68994;47.176;7.534;2023-05-10T01:06:38;95723.66;;;12.10;85.55
79544;BME280;68994;47.176;7.534;2023-05-10T01:09:04;95723.72;;;11.99;86.10
79544;BME280;68994;47.176;7.534;2023-05-10T01:11:31;95730.66;;;12.00;85.09
79544;BME280;68994;47.176;7.534;2023-05-10T01:13:58;95723.97;;;12.03;86.35
79544;BME280;68994;47.176;7.534;2023-05-10T01:16:27;95724.78;;;12.03;85.76
79544;BME280;68994;47.176;7.534;2023-05-10T01:18:55;95728.75;;;12.11;86.29
79544;BME280;68994;47.176;7.534;2023-05-10T01:21:28;95723.66;;;12.15;85.89
79544;BME280;68994;47.176;7.534;2023-05-10T01:24:12;95724.72;;;12.19;85.40
79544;BME280;68994;47.176;7.534;2023-05-10T01:27:01;95727.19;;;12.05;85.48
79544;BME280;68994;47.176;7.534;2023-05-10T01:29:47;95718.59;;;12.08;85.96
79544;BME280;68994;47.176;7.534;2023-05-10T01:32:27;95720.75;;;12.06;85.05
79544;BME280;68994;47.176;7.534;2023-05-10T01:35:01;95722.63;;;12.05;84.99
79544;BME280;68994;47.176;7.534;2023-05-10T01:37:35;95724.47;;;12.10;84.13
79544;BME280;68994;47.176;7.534;2023-05-10T01:40:10;95717.53;;;12.04;84.83
79544;BME280;68994;47.176;7.534;2023-05-10T01:42:43;95719.41;;;12.09;84.04
79544;BME280;68994;47.176;7.534;2023-05-10T01:45:18;95728.50;;;12.02;84.28
79544;BME280;68994;47.176;7.534;2023-05-10T01:47:51;95711.94;;;12.00;84.32
79544;BME280;68994;47.176;7.534;2023-05-10T01:50:24;95725.31;;;12.00;84.77
79544;BME280;68994;47.176;7.534;2023-05-10T01:52:56;95730.16;;;11.98;85.04
79544;BME280;68994;47.176;7.534;2023-05-10T01:55:25;95728.25;;;11.99;85.36
79544;BME280;68994;47.176;7.534;2023-05-10T01:58:00;95730.66;;;12.00;85.18
79544;BME280;68994;47.176;7.534;2023-05-10T02:00:28;95727.19;;;12.00;84.91
79544;BME280;68994;47.176;7.534;2023-05-10T02:02:57;95725.59;;;11.94;84.65
79544;BME280;68994;47.176;7.534;2023-05-10T02:05:26;95735.47;;;11.88;85.23
79544;BME280;68994;47.176;7.534;2023-05-10T02:07:56;95736.03;;;11.90;85.10
79544;BME280;68994;47.176;7.534;2023-05-10T02:10:24;95731.22;;;11.87;85.37
79544;BME280;68994;47.176;7.534;2023-05-10T02:12:53;95735.22;;;11.84;85.54
79544;BME280;68994;47.176;7.534;2023-05-10T02:15:22;95732.78;;;11.88;85.54
79544;BME280;68994;47.176;7.534;2023-05-10T02:17:51;95739.22;;;11.87;85.28
79544;BME280;68994;47.176;7.534;2023-05-10T02:20:21;95743.78;;;11.81;85.77
79544;BME280;68994;47.176;7.534;2023-05-10T02:22:49;95734.41;;;11.84;85.68
79544;BME280;68994;47.176;7.534;2023-05-10T02:25:17;95737.88;;;11.84;85.63
79544;BME280;68994;47.176;7.534;2023-05-10T02:27:46;95733.09;;;11.92;84.28
79544;BME280;68994;47.176;7.534;2023-05-10T02:30:14;95736.31;;;11.94;84.45
79544;BME280;68994;47.176;7.534;2023-05-10T02:32:42;95740.03;;;11.93;84.28
79544;BME280;68994;47.176;7.534;2023-05-10T02:35:10;95745.91;;;11.95;84.50
79544;BME280;68994;47.176;7.534;2023-05-10T02:37:39;95749.41;;;11.95;84.15
79544;BME280;68994;47.176;7.534;2023-05-10T02:40:07;95752.06;;;11.85;85.43
79544;BME280;68994;47.176;7.534;2023-05-10T02:42:37;95751.53;;;11.83;85.56
79544;BME280;68994;47.176;7.534;2023-05-10T02:45:08;95753.16;;;11.74;86.39
79544;BME280;68994;47.176;7.534;2023-05-10T02:47:37;95752.09;;;11.69;85.99
79544;BME280;68994;47.176;7.534;2023-05-10T02:50:04;95745.69;;;11.70;86.34
79544;BME280;68994;47.176;7.534;2023-05-10T02:52:38;95744.66;;;11.61;87.55
79544;BME280;68994;47.176;7.534;2023-05-10T02:55:09;95743.56;;;11.62;86.34
79544;BME280;68994;47.176;7.534;2023-05-10T02:57:40;95745.69;;;11.65;86.64
79544;BME280;68994;47.176;7.534;2023-05-10T03:00:08;95745.69;;;11.65;86.81
79544;BME280;68994;47.176;7.534;2023-05-10T03:02:35;95741.97;;;11.61;86.54
79544;BME280;68994;47.176;7.534;2023-05-10T03:05:01;95737.41;;;11.62;86.58
79544;BME280;68994;47.176;7.534;2023-05-10T03:07:28;95743.03;;;11.65;86.02
79544;BME280;68994;47.176;7.534;2023-05-10T03:09:55;95738.75;;;11.64;86.40
79544;BME280;68994;47.176;7.534;2023-05-10T03:12:31;95740.09;;;11.62;86.16
79544;BME280;68994;47.176;7.534;2023-05-10T03:15:03;95737.69;;;11.60;85.86
79544;BME280;68994;47.176;7.534;2023-05-10T03:17:36;95745.16;;;11.63;86.38
79544;BME280;68994;47.176;7.534;2023-05-10T03:20:09;95744.88;;;11.75;84.91
79544;BME280;68994;47.176;7.534;2023-05-10T03:22:41;95748.09;;;11.67;85.21
79544;BME280;68994;47.176;7.534;2023-05-10T03:25:11;95747.03;;;11.63;85.93
79544;BME280;68994;47.176;7.534;2023-05-10T03:27:42;95749.69;;;11.58;85.47
79544;BME280;68994;47.176;7.534;2023-05-10T03:30:11;95759.59;;;11.57;85.87
79544;BME280;68994;47.176;7.534;2023-05-10T03:32:38;95755.63;;;11.55;85.95
79544;BME280;68994;47.176;7.534;2023-05-10T03:35:06;95754.78;;;11.54;85.98
79544;BME280;68994;47.176;7.534;2023-05-10T03:37:33;95747.56;;;11.65;85.14
79544;BME280;68994;47.176;7.534;2023-05-10T03:40:00;95758.56;;;11.53;85.82
79544;BME280;68994;47.176;7.534;2023-05-10T03:42:26;95755.88;;;11.48;85.88
79544;BME280;68994;47.176;7.534;2023-05-10T03:44:54;95762.53;;;11.56;85.68
79544;BME280;68994;47.176;7.534;2023-05-10T03:47:21;95762.53;;;11.56;85.90
79544;BME280;68994;47.176;7.534;2023-05-10T03:49:47;95764.97;;;11.52;85.54
79544;BME280;68994;47.176;7.534;2023-05-10T03:52:14;95755.59;;;11.44;86.14
79544;BME280;68994;47.176;7.534;2023-05-10T03:54:40;95769.25;;;11.53;86.22
79544;BME280;68994;47.176;7.534;2023-05-10T03:57:07;95771.34;;;11.51;86.53
79544;BME280;68994;47.176;7.534;2023-05-10T03:59:34;95761.22;;;11.53;86.66
79544;BME280;68994;47.176;7.534;2023-05-10T04:02:02;95748.94;;;11.47;86.66
79544;BME280;68994;47.176;7.534;2023-05-10T04:04:29;95765.75;;;11.47;86.58
79544;BME280;68994;47.176;7.534;2023-05-10T04:06:55;95761.22;;;11.53;85.52
79544;BME280;68994;47.176;7.534;2023-05-10T04:09:22;95753.47;;;11.57;85.31
79544;BME280;68994;47.176;7.534;2023-05-10T04:11:49;95744.09;;;11.54;85.00
79544;BME280;68994;47.176;7.534;2023-05-10T04:14:15;95759.63;;;11.47;85.35
79544;BME280;68994;47.176;7.534;2023-05-10T04:16:42;95760.16;;;11.39;85.66
79544;BME280;68994;47.176;7.534;2023-05-10T04:19:10;95755.34;;;11.41;85.93
79544;BME280;68994;47.176;7.534;2023-05-10T04:21:37;95764.16;;;11.46;86.31
79544;BME280;68994;47.176;7.534;2023-05-10T04:24:04;95760.16;;;11.44;85.81
79544;BME280;68994;47.176;7.534;2023-05-10T04:26:30;95763.09;;;11.42;86.03
79544;BME280;68994;47.176;7.534;2023-05-10T04:28:57;95765.50;;;11.44;85.42
79544;BME280;68994;47.176;7.534;2023-05-10T04:31:24;95758.56;;;11.48;84.69
79544;BME280;68994;47.176;7.534;2023-05-10T04:33:51;95761.75;;;11.50;84.66
79544;BME280;68994;47.176;7.534;2023-05-10T04:36:19;95756.41;;;11.45;85.24
79544;BME280;68994;47.176;7.534;2023-05-10T04:38:45;95770.81;;;11.49;84.71
79544;BME280;68994;47.176;7.534;2023-05-10T04:41:12;95766.28;;;11.49;84.79
79544;BME280;68994;47.176;7.534;2023-05-10T04:43:39;95765.50;;;11.44;85.24
79544;BME280;68994;47.176;7.534;2023-05-10T04:46:06;95774.56;;;11.43;85.29
79544;BME280;68994;47.176;7.534;2023-05-10T04:48:33;95775.91;;;11.45;85.39
79544;BME280;68994;47.176;7.534;2023-05-10T04:50:59;95767.91;;;11.40;85.58
79544;BME280;68994;47.176;7.534;2023-05-10T04:53:27;95777.78;;;11.40;86.29
79544;BME280;68994;47.176;7.534;2023-05-10T04:55:54;95768.16;;;11.39;85.81
79544;BME280;68994;47.176;7.534;2023-05-10T04:58:20;95768.69;;;11.51;84.71
79544;BME280;68994;47.176;7.534;2023-05-10T05:00:47;95771.91;;;11.43;85.12
79544;BME280;68994;47.176;7.534;2023-05-10T05:03:13;95770.31;;;11.42;85.00
79544;BME280;68994;47.176;7.534;2023-05-10T05:05:40;95768.16;;;11.44;84.93
79544;BME280;68994;47.176;7.534;2023-05-10T05:08:07;95776.97;;;11.44;84.76
79544;BME280;68994;47.176;7.534;2023-05-10T05:10:35;95779.38;;;11.46;84.58
79544;BME280;68994;47.176;7.534;2023-05-10T05:13:02;95779.38;;;11.41;85.08
79544;BME280;68994;47.176;7.534;2023-05-10T05:15:28;95783.94;;;11.45;85.11
79544;BME280;68994;47.176;7.534;2023-05-10T05:17:55;95784.47;;;11.42;84.21
79544;BME280;68994;47.176;7.534;2023-05-10T05:20:22;95793.28;;;11.48;83.86
79544;BME280;68994;47.176;7.534;2023-05-10T05:22:49;95790.06;;;11.36;84.73
79544;BME280;68994;47.176;7.534;2023-05-10T05:25:15;95799.16;;;11.35;83.79
79544;BME280;68994;47.176;7.534;2023-05-10T05:27:43;95806.09;;;11.36;84.40
79544;BME280;68994;47.176;7.534;2023-05-10T05:30:10;95810.38;;;11.26;83.86
79544;BME280;68994;47.176;7.534;2023-05-10T05:32:37;95802.38;;;11.26;83.68
79544;BME280;68994;47.176;7.534;2023-05-10T05:35:04;95810.38;;;11.26;83.86
79544;BME280;68994;47.176;7.534;2023-05-10T05:37:31;95817.31;;;11.12;83.11
79544;BME280;68994;47.176;7.534;2023-05-10T05:39:58;95815.69;;;11.11;83.13
79544;BME280;68994;47.176;7.534;2023-05-10T05:42:26;95833.56;;;11.00;85.04
79544;BME280;68994;47.176;7.534;2023-05-10T05:44:54;95828.22;;;10.95;85.00
79544;BME280;68994;47.176;7.534;2023-05-10T05:47:20;95827.94;;;10.91;84.25
79544;BME280;68994;47.176;7.534;2023-05-10T05:49:47;95834.06;;;10.82;86.63
79544;BME280;68994;47.176;7.534;2023-05-10T05:52:14;95835.38;;;10.79;85.78
79544;BME280;68994;47.176;7.534;2023-05-10T05:54:40;95822.81;;;10.64;86.90
79544;BME280;68994;47.176;7.534;2023-05-10T05:57:07;95835.84;;;10.61;86.27
79544;BME280;68994;47.176;7.534;2023-05-10T05:59:34;95828.38;;;10.52;87.58
79544;BME280;68994;47.176;7.534;2023-05-10T06:02:02;95833.72;;;10.57;87.33
79544;BME280;68994;47.176;7.534;2023-05-10T06:04:28;95832.94;;;10.67;86.01
79544;BME280;68994;47.176;7.534;2023-05-10T06:06:55;95842.81;;;10.67;86.01
79544;BME280;68994;47.176;7.534;2023-05-10T06:09:21;95846.03;;;10.69;85.41
79544;BME280;68994;47.176;7.534;2023-05-10T06:11:49;95840.16;;;10.72;86.05
79544;BME280;68994;47.176;7.534;2023-05-10T06:14:16;95847.66;;;10.75;86.06
79544;BME280;68994;47.176;7.534;2023-05-10T06:16:42;95855.66;;;10.80;85.53
79544;BME280;68994;47.176;7.534;2023-05-10T06:19:10;95858.09;;;10.87;85.54
79544;BME280;68994;47.176;7.534;2023-05-10T06:21:37;95855.16;;;10.88;85.09
79544;BME280;68994;47.176;7.534;2023-05-10T06:24:05;95859.16;;;10.91;84.22
79544;BME280;68994;47.176;7.534;2023-05-10T06:26:31;95856.78;;;10.84;85.16
79544;BME280;68994;47.176;7.534;2023-05-10T06:28:58;95859.16;;;10.86;85.63
79544;BME280;68994;47.176;7.534;2023-05-10T06:31:25;95864.78;;;10.84;85.97
79544;BME280;68994;47.176;7.534;2023-05-10T06:33:51;95857.81;;;10.83;85.60
79544;BME280;68994;47.176;7.534;2023-05-10T06:36:19;95862.66;;;10.86;84.83
79544;BME280;68994;47.176;7.534;2023-05-10T06:38:47;95859.44;;;10.89;84.71
79544;BME280;68994;47.176;7.534;2023-05-10T06:41:13;95870.66;;;10.91;85.42
79544;BME280;68994;47.176;7.534;2023-05-10T06:43:40;95868.00;;;10.97;83.82
79544;BME280;68994;47.176;7.534;2023-05-10T06:46:08;95872.00;;;10.99;84.70
79544;BME280;68994;47.176;7.534;2023-05-10T06:48:35;95869.34;;;10.99;85.30
79544;BME280;68994;47.176;7.534;2023-05-10T06:51:01;95874.66;;;10.99;84.62
79544;BME280;68994;47.176;7.534;2023-05-10T06:53:29;95879.75;;;11.06;84.21
79544;BME280;68994;47.176;7.534;2023-05-10T06:55:56;95876.03;;;11.02;84.71
79544;BME280;68994;47.176;7.534;2023-05-10T06:58:22;95881.38;;;11.02;85.23
79544;BME280;68994;47.176;7.534;2023-05-10T07:00:49;95886.19;;;11.00;83.91
79544;BME280;68994;47.176;7.534;2023-05-10T07:03:15;95893.69;;;11.08;84.45
79544;BME280;68994;47.176;7.534;2023-05-10T07:05:42;95894.75;;;11.12;84.39
79544;BME280;68994;47.176;7.534;2023-05-10T07:08:09;95891.81;;;11.08;84.93
79544;BME280;68994;47.176;7.534;2023-05-10T07:10:37;95899.56;;;11.15;84.07
79544;BME280;68994;47.176;7.534;2023-05-10T07:13:03;95898.78;;;11.20;84.08
79544;BME280;68994;47.176;7.534;2023-05-10T07:15:30;95893.19;;;11.26;83.76
79544;BME280;68994;47.176;7.534;2023-05-10T07:17:56;95897.44;;;11.32;84.04
79544;BME280;68994;47.176;7.534;2023-05-10T07:20:23;95897.72;;;11.31;84.47
79544;BME280;68994;47.176;7.534;2023-05-10T07:22:50;95891.59;;;11.36;83.57
79544;BME280;68994;47.176;7.534;2023-05-10T07:25:16;95887.88;;;11.42;81.44
79544;BME280;68994;47.176;7.534;2023-05-10T07:27:44;95889.44;;;11.43;80.12
79544;BME280;68994;47.176;7.534;2023-05-10T07:30:11;95895.34;;;11.35;79.98
79544;BME280;68994;47.176;7.534;2023-05-10T07:32:38;95897.47;;;11.43;79.13
79544;BME280;68994;47.176;7.534;2023-05-10T07:35:07;95895.06;;;11.36;79.39
79544;BME280;68994;47.176;7.534;2023-05-10T07:37:34;95891.59;;;11.36;78.08
79544;BME280;68994;47.176;7.534;2023-05-10T07:40:01;95894.25;;;11.30;78.06
79544;BME280;68994;47.176;7.534;2023-05-10T07:42:27;95897.19;;;11.39;72.68
79544;BME280;68994;47.176;7.534;2023-05-10T07:44:55;95893.19;;;11.37;76.68
79544;BME280;68994;47.176;7.534;2023-05-10T07:47:22;95891.31;;;11.37;74.56
79544;BME280;68994;47.176;7.534;2023-05-10T07:49:48;95892.69;;;11.50;75.04
79544;BME280;68994;47.176;7.534;2023-05-10T07:52:15;95889.47;;;11.48;75.46
79544;BME280;68994;47.176;7.534;2023-05-10T07:54:41;95896.97;;;11.66;75.25
79544;BME280;68994;47.176;7.534;2023-05-10T07:57:08;95891.06;;;11.75;74.46
79544;BME280;68994;47.176;7.534;2023-05-10T07:59:35;95894.31;;;11.82;75.45
79544;BME280;68994;47.176;7.534;2023-05-10T08:02:03;95894.84;;;11.79;74.68
79544;BME280;68994;47.176;7.534;2023-05-10T08:04:29;95895.09;;;11.82;74.60
79544;BME280;68994;47.176;7.534;2023-05-10T08:06:56;95896.97;;;11.82;72.75
79544;BME280;68994;47.176;7.534;2023-05-10T08:09:22;95896.97;;;11.77;73.75
79544;BME280;68994;47.176;7.534;2023-05-10T08:11:49;95907.13;;;11.69;74.42
79544;BME280;68994;47.176;7.534;2023-05-10T08:14:15;95898.56;;;11.73;75.57
79544;BME280;68994;47.176;7.534;2023-05-10T08:16:42;95913.03;;;11.72;74.28
79544;BME280;68994;47.176;7.534;2023-05-10T08:19:10;95897.78;;;11.72;74.82
79544;BME280;68994;47.176;7.534;2023-05-10T08:21:37;95901.81;;;11.80;72.99
79544;BME280;68994;47.176;7.534;2023-05-10T08:24:04;95899.09;;;11.69;72.88
79544;BME280;68994;47.176;7.534;2023-05-10T08:26:32;95889.50;;;11.79;74.72
79544;BME280;68994;47.176;7.534;2023-05-10T08:28:59;95888.69;;;11.88;72.39
79544;BME280;68994;47.176;7.534;2023-05-10T08:31:25;95887.91;;;12.14;71.87
79544;BME280;68994;47.176;7.534;2023-05-10T08:33:52;95891.31;;;12.40;69.80
79544;BME280;68994;47.176;7.534;2023-05-10T08:36:20;95884.22;;;12.80;70.66
79544;BME280;68994;47.176;7.534;2023-05-10T08:38:50;95876.34;;;13.04;70.38
79544;BME280;68994;47.176;7.534;2023-05-10T08:41:17;95892.06;;;13.21;68.72
79544;BME280;68994;47.176;7.534;2023-05-10T08:43:46;95893.38;;;13.34;68.60
79544;BME280;68994;47.176;7.534;2023-05-10T08:46:15;95902.94;;;13.45;65.65
79544;BME280;68994;47.176;7.534;2023-05-10T08:48:43;95886.78;;;13.55;66.41
79544;BME280;68994;47.176;7.534;2023-05-10T08:51:13;95886.31;;;13.83;67.69
79544;BME280;68994;47.176;7.534;2023-05-10T08:53:41;95875.97;;;14.00;65.94
79544;BME280;68994;47.176;7.534;2023-05-10T08:56:08;95875.53;;;14.17;65.10
79544;BME280;68994;47.176;7.534;2023-05-10T08:58:35;95885.44;;;14.46;66.79
79544;BME280;68994;47.176;7.534;2023-05-10T09:01:03;95872.81;;;14.22;59.13
79544;BME280;68994;47.176;7.534;2023-05-10T09:03:29;95876.50;;;14.32;61.46
79544;BME280;68994;47.176;7.534;2023-05-10T09:05:56;95881.84;;;14.32;62.07
79544;BME280;68994;47.176;7.534;2023-05-10T09:08:24;95885.50;;;14.17;61.36
79544;BME280;68994;47.176;7.534;2023-05-10T09:10:53;95873.56;;;13.99;60.43
79544;BME280;68994;47.176;7.534;2023-05-10T09:13:21;95875.50;;;13.93;64.86
79544;BME280;68994;47.176;7.534;2023-05-10T09:15:49;95883.59;;;13.88;62.90
79544;BME280;68994;47.176;7.534;2023-05-10T09:18:16;95890.72;;;14.03;65.87
79544;BME280;68994;47.176;7.534;2023-05-10T09:20:43;95889.06;;;14.07;63.79
79544;BME280;68994;47.176;7.534;2023-05-10T09:23:10;95883.97;;;14.35;62.60
79544;BME280;68994;47.176;7.534;2023-05-10T09:25:36;95879.50;;;14.78;58.26
79544;BME280;68994;47.176;7.534;2023-05-10T09:28:07;95878.59;;;15.26;54.52
79544;BME280;68994;47.176;7.534;2023-05-10T09:30:35;95881.44;;;16.66;53.75
79544;BME280;68994;47.176;7.534;2023-05-10T09:33:02;95884.00;;;17.27;49.18
79544;BME280;68994;47.176;7.534;2023-05-10T09:35:30;95879.72;;;17.62;50.54
79544;BME280;68994;47.176;7.534;2023-05-10T09:37:58;95879.16;;;17.74;48.23
79544;BME280;68994;47.176;7.534;2023-05-10T09:40:27;95882.00;;;17.33;48.92
79544;BME280;68994;47.176;7.534;2023-05-10T09:42:54;95889.03;;;16.64;51.72
79544;BME280;68994;47.176;7.534;2023-05-10T09:45:23;95885.22;;;16.51;55.20
79544;BME280;68994;47.176;7.534;2023-05-10T09:47:50;95890.44;;;16.15;53.50
79544;BME280;68994;47.176;7.534;2023-05-10T09:50:17;95886.25;;;15.76;54.67
79544;BME280;68994;47.176;7.534;2023-05-10T09:52:48;95886.16;;;15.24;54.11
79544;BME280;68994;47.176;7.534;2023-05-10T09:55:16;95890.34;;;14.92;56.07
79544;BME280;68994;47.176;7.534;2023-05-10T09:57:42;95887.16;;;14.90;59.32
79544;BME280;68994;47.176;7.534;2023-05-10T10:00:10;95873.81;;;15.23;57.88
79544;BME280;68994;47.176;7.534;2023-05-10T10:02:39;95871.19;;;15.94;54.91
79544;BME280;68994;47.176;7.534;2023-05-10T10:05:06;95877.34;;;15.94;56.21
79544;BME280;68994;47.176;7.534;2023-05-10T10:07:34;95877.88;;;15.77;55.65
79544;BME280;68994;47.176;7.534;2023-05-10T10:10:01;95883.31;;;15.53;58.75
79544;BME280;68994;47.176;7.534;2023-05-10T10:12:29;95880.72;;;15.29;54.45
79544;BME280;68994;47.176;7.534;2023-05-10T10:14:56;95882.72;;;14.99;55.28
79544;BME280;68994;47.176;7.534;2023-05-10T10:17:23;95890.47;;;14.82;54.74
79544;BME280;68994;47.176;7.534;2023-05-10T10:19:55;95878.59;;;14.64;55.40
79544;BME280;68994;47.176;7.534;2023-05-10T10:22:23;95871.94;;;14.80;56.46
79544;BME280;68994;47.176;7.534;2023-05-10T10:24:50;95870.03;;;15.24;56.45
79544;BME280;68994;47.176;7.534;2023-05-10T10:27:22;95872.84;;;15.90;56.38
79544;BME280;68994;47.176;7.534;2023-05-10T10:29:59;95872.69;;;16.61;53.88
79544;BME280;68994;47.176;7.534;2023-05-10T10:32:33;95867.56;;;17.01;47.84
79544;BME280;68994;47.176;7.534;2023-05-10T10:35:06;95872.59;;;16.94;52.14
79544;BME280;68994;47.176;7.534;2023-05-10T10:37:44;95853.91;;;16.56;49.58
79544;BME280;68994;47.176;7.534;2023-05-10T10:40:24;95874.44;;;15.91;50.03
79544;BME280;68994;47.176;7.534;2023-05-10T10:42:51;95868.66;;;15.46;52.00
79544;BME280;68994;47.176;7.534;2023-05-10T10:45:20;95875.28;;;15.15;52.80
79544;BME280;68994;47.176;7.534;2023-05-10T10:47:47;95873.50;;;14.87;54.96
79544;BME280;68994;47.176;7.534;2023-05-10T10:50:16;95869.81;;;14.53;55.61
79544;BME280;68994;47.176;7.534;2023-05-10T10:52:43;95869.47;;;14.36;56.13
79544;BME280;68994;47.176;7.534;2023-05-10T10:55:11;95882.53;;;14.18;56.38
79544;BME280;68994;47.176;7.534;2023-05-10T10:57:46;95875.09;;;14.10;58.59
79544;BME280;68994;47.176;7.534;2023-05-10T11:00:35;95877.38;;;15.18;57.25
79544;BME280;68994;47.176;7.534;2023-05-10T11:03:04;95872.25;;;17.09;48.22
79544;BME280;68994;47.176;7.534;2023-05-10T11:05:39;95870.56;;;16.58;48.98
79544;BME280;68994;47.176;7.534;2023-05-10T11:08:09;95874.59;;;16.13;51.09
79544;BME280;68994;47.176;7.534;2023-05-10T11:10:36;95873.78;;;15.99;53.02
79544;BME280;68994;47.176;7.534;2023-05-10T11:13:05;95871.25;;;16.36;52.77
79544;BME280;68994;47.176;7.534;2023-05-10T11:15:33;95870.88;;;16.70;52.58
79544;BME280;68994;47.176;7.534;2023-05-10T11:18:16;95869.03;;;17.35;53.00
79544;BME280;68994;47.176;7.534;2023-05-10T11:20:50;95855.88;;;18.24;48.67
79544;BME280;68994;47.176;7.534;2023-05-10T11:23:18;95854.47;;;19.33;50.70
79544;BME280;68994;47.176;7.534;2023-05-10T11:25:46;95858.44;;;20.70;44.92
79544;BME280;68994;47.176;7.534;2023-05-10T11:28:14;95849.03;;;20.02;40.18
79544;BME280;68994;47.176;7.534;2023-05-10T11:30:42;95848.69;;;18.99;41.33
79544;BME280;68994;47.176;7.534;2023-05-10T11:33:11;95853.94;;;18.96;43.13
79544;BME280;68994;47.176;7.534;2023-05-10T11:35:41;95848.59;;;19.48;42.19
79544;BME280;68994;47.176;7.534;2023-05-10T11:38:10;95854.28;;;19.20;41.55
79544;BME280;68994;47.176;7.534;2023-05-10T11:40:37;95855.19;;;18.98;42.97
79544;BME280;68994;47.176;7.534;2023-05-10T11:43:04;95848.38;;;18.61;43.78
79544;BME280;68994;47.176;7.534;2023-05-10T11:45:32;95835.78;;;18.16;40.64
79544;BME280;68994;47.176;7.534;2023-05-10T11:47:59;95850.09;;;18.16;44.53
79544;BME280;68994;47.176;7.534;2023-05-10T11:50:26;95844.97;;;18.38;44.27
79544;BME280;68994;47.176;7.534;2023-05-10T11:52:53;95847.69;;;18.46;43.98
79544;BME280;68994;47.176;7.534;2023-05-10T11:55:22;95842.41;;;18.81;41.72
79544;BME280;68994;47.176;7.534;2023-05-10T11:57:51;95841.25;;;19.31;40.58
79544;BME280;68994;47.176;7.534;2023-05-10T12:00:18;95836.47;;;20.45;43.63
79544;BME280;68994;47.176;7.534;2023-05-10T12:02:45;95831.06;;;19.89;38.24
79544;BME280;68994;47.176;7.534;2023-05-10T12:05:12;95835.81;;;19.92;36.19
79544;BME280;68994;47.176;7.534;2023-05-10T12:07:39;95838.47;;;20.18;39.17
79544;BME280;68994;47.176;7.534;2023-05-10T12:10:07;95837.13;;;19.60;38.15
79544;BME280;68994;47.176;7.534;2023-05-10T12:12:39;95836.00;;;19.26;38.92
79544;BME280;68994;47.176;7.534;2023-05-10T12:15:11;95841.34;;;18.91;39.33
79544;BME280;68994;47.176;7.534;2023-05-10T12:17:39;95833.28;;;18.68;42.19
79544;BME280;68994;47.176;7.534;2023-05-10T12:20:19;95835.88;;;18.73;42.47
79544;BME280;68994;47.176;7.534;2023-05-10T12:22:50;95834.19;;;18.46;42.15
79544;BME280;68994;47.176;7.534;2023-05-10T12:25:17;95827.28;;;18.71;39.33
79544;BME280;68994;47.176;7.534;2023-05-10T12:27:50;95825.69;;;18.70;43.12
79544;BME280;68994;47.176;7.534;2023-05-10T12:30:21;95820.94;;;18.76;43.12
79544;BME280;68994;47.176;7.534;2023-05-10T12:32:48;95828.13;;;18.41;45.17
79544;BME280;68994;47.176;7.534;2023-05-10T12:35:15;95829.28;;;18.17;43.19
79544;BME280;68994;47.176;7.534;2023-05-10T12:37:42;95834.91;;;17.75;44.08
79544;BME280;68994;47.176;7.534;2023-05-10T12:40:10;95830.19;;;17.58;44.86
79544;BME280;68994;47.176;7.534;2023-05-10T12:42:38;95828.13;;;18.41;42.44
79544;BME280;68994;47.176;7.534;2023-05-10T12:45:07;95827.72;;;19.83;48.57
79544;BME280;68994;47.176;7.534;2023-05-10T12:47:34;95824.88;;;20.83;38.44
79544;BME280;68994;47.176;7.534;2023-05-10T12:50:02;95825.13;;;20.90;41.25
79544;BME280;68994;47.176;7.534;2023-05-10T12:52:29;95826.22;;;20.21;36.53
79544;BME280;68994;47.176;7.534;2023-05-10T12:54:56;95835.38;;;19.38;38.81
79544;BME280;68994;47.176;7.534;2023-05-10T12:57:23;95836.56;;;18.88;39.28
79544;BME280;68994;47.176;7.534;2023-05-10T12:59:50;95831.94;;;18.48;40.95
79544;BME280;68994;47.176;7.534;2023-05-10T13:02:18;95831.28;;;18.34;42.57
79544;BME280;68994;47.176;7.534;2023-05-10T13:04:46;95828.53;;;17.94;42.90